Time;durP1;ratioP1;P1;durP2;ratioP2;P2;SDS_P1;SDS_P2;PMS_P1;PMS_P2;Temp;Humidity;BMP_temperature;BMP_pressure;BME280_temperature;BME280_humidity;BME280_pressure;Samples;Min_cycle;Max_cycle;Signal;HPM_P1;HPM_P2
2021/10/15 05:06:57;;;;;;;14.23;9.43;;;;;;;8.31;78.64;100217.78;5005214;28;106185;-69
2021/10/15 05:11:51;;;;;;;13.85;8.80;;;;;;;8.38;78.87;100216.16;5004346;28;106213;-68
2021/10/15 05:14:16;;;;;;;14.88;9.23;;;;;;;8.39;79.03;100215.19;5004323;28;106206;-68
2021/10/15 05:16:41;;;;;;;15.25;10.00;;;;;;;8.38;78.76;100220.59;5004924;28;106005;-65
2021/10/15 05:19:07;;;;;;;15.20;9.65;;;;;;;8.41;79.23;100218.50;5005136;28;106105;-68
2021/10/15 05:21:33;;;;;;;17.30;10.77;;;;;;;8.45;78.84;100213.75;5005240;28;105783;-68
2021/10/15 05:23:58;;;;;;;17.40;10.48;;;;;;;8.51;79.19;100213.09;5004568;28;105772;-68
2021/10/15 05:26:23;;;;;;;17.70;10.60;;;;;;;8.56;79.49;100207.34;5003936;28;105844;-69
2021/10/15 05:28:49;;;;;;;16.73;11.73;;;;;;;8.60;79.19;100206.03;5004980;28;105899;-67
2021/10/15 05:31:14;;;;;;;16.50;10.77;;;;;;;8.61;78.96;100208.53;5003994;28;105755;-68
2021/10/15 05:33:39;;;;;;;16.52;11.00;;;;;;;8.64;79.12;100205.56;5003626;28;105824;-69
2021/10/15 05:36:04;;;;;;;16.02;11.23;;;;;;;8.68;79.65;100208.75;5003726;28;106218;-67
2021/10/15 05:38:30;;;;;;;14.55;9.55;;;;;;;8.72;79.77;100198.63;5004715;28;105882;-68
2021/10/15 05:40:55;;;;;;;16.02;9.95;;;;;;;8.75;79.70;100203.63;5004731;28;105997;-69
2021/10/15 05:43:20;;;;;;;18.05;11.18;;;;;;;8.76;79.26;100206.13;5004193;28;106083;-68
2021/10/15 05:45:46;;;;;;;15.57;10.80;;;;;;;8.76;79.45;100200.81;5003428;28;106028;-67
2021/10/15 05:48:11;;;;;;;16.40;10.05;;;;;;;8.75;79.27;100201.81;5004249;28;106437;-68
2021/10/15 05:50:37;;;;;;;15.50;10.75;;;;;;;8.72;79.16;100202.13;5004034;28;106152;-67
2021/10/15 05:53:07;;;;;;;15.38;10.65;;;;;;;8.70;78.91;100198.78;5003305;28;106080;-67
2021/10/15 05:56:02;;;;;;;16.40;11.13;;;;;;;8.68;79.05;100198.13;5003573;28;106013;-66
2021/10/15 06:01:11;;;;;;;15.75;10.15;;;;;;;8.66;79.43;100186.81;5003695;28;106293;-70
2021/10/15 06:03:37;;;;;;;18.70;11.25;;;;;;;8.69;79.37;100188.31;5002872;28;105988;-69
2021/10/15 06:14:20;;;;;;;17.02;10.15;;;;;;;9.08;79.78;100195.81;5003350;28;106378;-67
2021/10/15 06:16:54;;;;;;;17.27;10.10;;;;;;;9.19;79.27;100195.50;4998056;28;106034;-66
2021/10/15 06:19:23;;;;;;;11.45;7.93;;;;;;;9.32;79.55;100192.38;4989569;28;105982;-66
2021/10/15 06:21:48;;;;;;;15.35;9.75;;;;;;;9.47;79.16;100193.44;4990985;28;106333;-68
2021/10/15 06:24:14;;;;;;;16.25;10.13;;;;;;;9.63;79.09;100191.78;4990909;28;105957;-68
2021/10/15 06:26:40;;;;;;;12.13;8.15;;;;;;;9.83;78.96;100197.63;4990255;28;106008;-68
2021/10/15 06:29:05;;;;;;;13.13;8.68;;;;;;;10.06;78.63;100199.63;4991460;28;106034;-67
2021/10/15 06:31:31;;;;;;;13.98;8.45;;;;;;;10.16;78.35;100201.13;4990747;28;106274;-68
2021/10/15 06:33:56;;;;;;;13.90;9.73;;;;;;;10.26;77.46;100189.47;4990524;28;106309;-69
2021/10/15 06:36:22;;;;;;;11.65;7.97;;;;;;;10.29;77.43;100197.13;4990607;28;106537;-68
2021/10/15 06:38:47;;;;;;;12.93;7.70;;;;;;;10.28;76.73;100201.63;4991443;28;106060;-68
2021/10/15 06:41:13;;;;;;;14.60;9.52;;;;;;;10.29;76.81;100192.66;4990756;28;106293;-68
2021/10/15 06:43:38;;;;;;;16.83;9.73;;;;;;;10.30;76.77;100188.13;4990016;28;108482;-68
2021/10/15 06:46:04;;;;;;;12.85;9.40;;;;;;;10.31;76.44;100190.63;4989889;28;106220;-66
2021/10/15 06:48:29;;;;;;;13.30;8.95;;;;;;;10.37;76.23;100189.16;4990925;28;105719;-67
2021/10/15 06:50:54;;;;;;;12.73;8.93;;;;;;;10.44;75.64;100182.16;4990472;28;106327;-69
2021/10/15 06:53:20;;;;;;;15.07;9.23;;;;;;;10.56;76.57;100187.94;4989797;28;106703;-70
2021/10/15 06:55:47;;;;;;;12.95;8.57;;;;;;;10.75;76.49;100186.72;4990261;28;106059;-70
2021/10/15 06:58:13;;;;;;;10.02;7.05;;;;;;;10.92;75.85;100192.00;4990390;28;105946;-68
2021/10/15 07:00:39;;;;;;;12.93;9.05;;;;;;;10.98;75.74;100202.00;4986651;28;106313;-68
2021/10/15 07:03:12;;;;;;;12.82;7.57;;;;;;;11.05;74.54;100186.97;4988879;28;106425;-67
2021/10/15 07:05:38;;;;;;;16.70;8.93;;;;;;;11.17;75.05;100187.41;4988615;28;106178;-68
2021/10/15 07:08:03;;;;;;;13.95;9.63;;;;;;;11.35;74.58;100181.81;4989806;28;106017;-66
2021/10/15 07:10:30;;;;;;;14.88;8.52;;;;;;;11.54;74.18;100185.88;4989708;28;106202;-68
2021/10/15 07:12:56;;;;;;;11.65;8.05;;;;;;;11.76;74.04;100184.22;4988689;28;106324;-68
2021/10/15 07:15:21;;;;;;;12.15;8.68;;;;;;;11.90;73.26;100184.44;4989161;28;105867;-70
2021/10/15 07:17:46;;;;;;;13.35;8.50;;;;;;;11.83;71.80;100179.81;4989690;28;105894;-67
2021/10/15 07:20:12;;;;;;;10.70;8.45;;;;;;;11.75;72.48;100187.88;4988941;28;106066;-69
2021/10/15 07:22:37;;;;;;;13.57;8.52;;;;;;;11.84;72.37;100180.66;4988855;28;106304;-68
2021/10/15 07:25:05;;;;;;;11.85;7.60;;;;;;;11.99;72.38;100175.41;4989648;28;106057;-68
2021/10/15 07:27:30;;;;;;;12.45;8.73;;;;;;;11.99;71.69;100170.06;4990357;28;107051;-68
2021/10/15 07:29:55;;;;;;;12.40;7.20;;;;;;;12.01;71.54;100168.03;4988417;28;106170;-68
2021/10/15 07:32:21;;;;;;;10.43;7.10;;;;;;;12.06;71.37;100168.31;4989147;28;106325;-66
2021/10/15 07:34:46;;;;;;;9.02;6.43;;;;;;;12.19;71.36;100163.19;4988605;28;106317;-66
2021/10/15 07:37:12;;;;;;;10.20;7.43;;;;;;;12.39;71.14;100162.66;4989823;28;105839;-67
2021/10/15 07:39:37;;;;;;;7.90;5.53;;;;;;;12.55;70.35;100176.84;4988471;28;106133;-65
2021/10/15 07:42:04;;;;;;;8.93;6.18;;;;;;;12.68;70.05;100153.00;4987653;28;105989;-67
2021/10/15 07:44:30;;;;;;;8.27;6.28;;;;;;;13.05;70.48;100169.91;4986653;28;106402;-68
2021/10/15 07:46:56;;;;;;;6.90;5.07;;;;;;;13.44;68.87;100165.28;4989643;28;106239;-65
2021/10/15 07:49:21;;;;;;;8.32;5.55;;;;;;;13.73;68.30;100166.97;4989259;28;105911;-67
2021/10/15 07:51:47;;;;;;;6.43;4.18;;;;;;;13.86;65.97;100171.66;4989029;28;106529;-68
2021/10/15 07:54:13;;;;;;;8.85;6.57;;;;;;;14.11;66.14;100166.69;4988941;28;105842;-66
2021/10/15 07:56:38;;;;;;;8.55;5.43;;;;;;;14.20;66.27;100162.88;4989976;28;105896;-68
2021/10/15 07:59:03;;;;;;;7.28;5.15;;;;;;;14.44;64.78;100160.75;4988867;28;105958;-68
2021/10/15 08:01:29;;;;;;;6.30;4.53;;;;;;;14.49;63.23;100155.63;4987002;28;106058;-67
2021/10/15 08:03:55;;;;;;;9.20;6.10;;;;;;;15.62;63.96;100145.56;4986875;28;106423;-67
2021/10/15 08:06:21;;;;;;;7.65;5.00;;;;;;;17.31;59.61;100145.06;4987274;28;106768;-68
2021/10/15 08:08:48;;;;;;;8.38;5.53;;;;;;;19.49;59.84;100152.28;4987205;28;106195;-68
2021/10/15 08:11:14;;;;;;;8.10;5.82;;;;;;;21.21;54.31;100150.50;4986535;28;106371;-68
2021/10/15 08:13:39;;;;;;;6.63;5.05;;;;;;;22.13;49.72;100156.72;4986607;28;105993;-68
2021/10/15 08:16:05;;;;;;;7.70;4.60;;;;;;;23.04;47.45;100165.56;4989404;28;106090;-68
2021/10/15 08:18:31;;;;;;;6.57;5.03;;;;;;;23.84;45.37;100163.13;4989436;28;106660;-68
2021/10/15 08:20:57;;;;;;;10.15;5.65;;;;;;;23.83;43.69;100161.50;4988806;28;106267;-67
2021/10/15 08:23:26;;;;;;;7.40;4.70;;;;;;;23.56;42.28;100162.31;4988678;28;105992;-69
2021/10/15 08:25:51;;;;;;;6.60;4.65;;;;;;;23.78;44.49;100154.13;4987501;28;106136;-69
2021/10/15 08:28:16;;;;;;;6.75;4.38;;;;;;;24.79;43.58;100154.25;4988369;28;106123;-70
2021/10/15 08:30:42;;;;;;;7.63;4.88;;;;;;;26.25;39.96;100143.28;4988889;28;105939;-70
2021/10/15 08:33:07;;;;;;;9.32;4.22;;;;;;;26.82;36.73;100151.34;4986930;28;105948;-69
2021/10/15 08:35:33;;;;;;;8.00;3.90;;;;;;;26.87;35.96;100151.31;4989720;28;105841;-70
2021/10/15 08:37:58;;;;;;;5.65;3.65;;;;;;;27.25;34.71;100148.91;4988584;28;105889;-69
2021/10/15 08:40:24;;;;;;;5.78;3.28;;;;;;;27.69;31.98;100148.09;4987894;28;107320;-68
2021/10/15 08:42:58;;;;;;;5.25;3.40;;;;;;;27.76;30.84;100141.47;4986745;28;106118;-68
2021/10/15 08:45:24;;;;;;;5.78;3.85;;;;;;;28.01;30.03;100149.50;4987447;28;106420;-68
2021/10/15 08:47:50;;;;;;;6.70;3.65;;;;;;;28.67;29.56;100132.66;4986231;28;106327;-68
2021/10/15 08:50:15;;;;;;;6.03;3.92;;;;;;;29.35;27.29;100119.69;4987168;28;106403;-69
2021/10/15 08:52:40;;;;;;;8.15;4.15;;;;;;;28.84;26.97;100115.72;4987926;28;107252;-68
2021/10/15 08:55:06;;;;;;;5.80;3.25;;;;;;;28.47;26.30;100111.75;4988417;28;107254;-69
2021/10/15 08:57:32;;;;;;;6.57;3.67;;;;;;;28.18;27.39;100123.59;4987662;28;106292;-66
2021/10/15 08:59:57;;;;;;;3.80;3.00;;;;;;;27.74;26.69;100125.34;4987178;28;106076;-67
2021/10/15 09:02:23;;;;;;;3.45;2.63;;;;;;;27.15;26.36;100146.25;4987347;28;106087;-68
2021/10/15 09:04:54;;;;;;;4.75;3.55;;;;;;;26.71;27.15;100139.66;4987875;28;106362;-69
2021/10/15 09:07:22;;;;;;;4.60;3.60;;;;;;;26.76;27.58;100114.19;4986103;28;105869;-69
2021/10/15 09:10:07;;;;;;;5.00;3.78;;;;;;;27.54;26.74;100145.47;4987480;28;105858;-69
2021/10/15 09:12:47;;;;;;;6.53;3.42;;;;;;;28.51;26.73;100113.66;4987074;28;106325;-69
2021/10/15 09:15:14;;;;;;;4.57;3.42;;;;;;;28.64;26.10;100103.13;4986509;28;106220;-67
2021/10/15 09:17:50;;;;;;;4.53;3.67;;;;;;;28.08;26.63;100120.97;4987263;28;106308;-66
2021/10/15 09:20:29;;;;;;;4.35;3.40;;;;;;;28.10;25.88;100122.28;4986785;28;105893;-66
2021/10/15 09:22:55;;;;;;;5.33;3.33;;;;;;;28.36;25.68;100097.38;4986787;28;105877;-67
2021/10/15 09:25:21;;;;;;;4.90;3.20;;;;;;;26.95;25.15;100108.91;4987676;28;106678;-66
2021/10/15 09:27:50;;;;;;;5.13;3.53;;;;;;;25.50;27.57;100111.91;4987281;28;106205;-68
2021/10/15 09:30:18;;;;;;;4.40;3.10;;;;;;;25.39;27.88;100114.94;4986493;28;106674;-67
2021/10/15 09:32:46;;;;;;;4.82;3.55;;;;;;;24.02;29.04;100114.84;4984504;28;106326;-69
2021/10/15 09:35:14;;;;;;;4.28;3.20;;;;;;;22.28;31.54;100128.97;4987678;28;106092;-66
2021/10/15 09:37:42;;;;;;;4.90;3.75;;;;;;;21.01;33.06;100113.84;4987701;28;106142;-68
2021/10/15 09:40:19;;;;;;;5.45;3.40;;;;;;;20.17;34.78;100115.03;4987229;28;106052;-68
2021/10/15 09:42:47;;;;;;;5.53;4.25;;;;;;;20.09;35.72;100113.50;4987514;28;105828;-66
2021/10/15 09:45:19;;;;;;;5.03;3.35;;;;;;;22.81;33.44;100110.41;4987584;28;106022;-70
2021/10/15 09:47:49;;;;;;;5.93;3.38;;;;;;;25.12;29.46;100121.38;4986971;28;106226;-65
2021/10/15 09:50:15;;;;;;;;;;;;;;;26.55;28.31;100108.78;4984988;28;106030;-69
2021/10/15 09:52:50;;;;;;;5.15;3.72;;;;;;;27.35;26.50;100112.47;4988903;28;106137;-72
2021/10/15 09:55:18;;;;;;;4.50;3.50;;;;;;;28.03;25.56;100095.28;4989158;28;106243;-68
2021/10/15 09:57:46;;;;;;;4.55;3.50;;;;;;;29.38;24.69;100103.44;4988100;28;106309;-69
2021/10/15 10:00:16;;;;;;;5.45;3.50;;;;;;;30.38;22.83;100112.41;4990245;28;105909;-69
2021/10/15 10:02:42;;;;;;;5.60;3.17;;;;;;;30.25;22.28;100108.56;4987714;28;105999;-69
2021/10/15 10:05:13;;;;;;;5.30;4.05;;;;;;;30.55;22.16;100095.31;4990819;28;106105;-68
2021/10/15 10:07:40;;;;;;;4.45;3.63;;;;;;;31.24;21.56;100083.38;4989878;28;106270;-69
2021/10/15 10:10:07;;;;;;;6.05;3.60;;;;;;;31.54;20.91;100098.31;4990432;28;106585;-69
2021/10/15 10:12:35;;;;;;;5.25;3.20;;;;;;;32.18;20.37;100115.75;4990101;28;106074;-68
2021/10/15 10:15:00;;;;;;;3.88;3.30;;;;;;;31.81;19.72;100101.25;4990418;28;106069;-69
2021/10/15 10:17:27;;;;;;;5.40;3.78;;;;;;;31.84;20.37;100100.66;4990057;28;106195;-69
2021/10/15 10:20:04;;;;;;;4.65;3.50;;;;;;;31.92;20.05;100072.34;4989422;28;107807;-71
2021/10/15 10:22:32;;;;;;;6.05;3.58;;;;;;;32.60;19.91;100069.31;4987562;28;106036;-68
2021/10/15 10:24:59;;;;;;;5.15;2.95;;;;;;;33.22;19.19;100065.47;4988289;28;105964;-65
2021/10/15 10:27:30;;;;;;;4.22;3.15;;;;;;;32.76;19.00;100057.88;4990481;28;106554;-67
2021/10/15 10:29:56;;;;;;;3.97;2.80;;;;;;;33.66;18.27;100062.66;4990198;28;106067;-67
2021/10/15 10:32:23;;;;;;;3.70;2.90;;;;;;;33.29;18.11;100051.22;4989319;28;105998;-70
2021/10/15 10:34:49;;;;;;;4.65;2.80;;;;;;;33.32;18.25;100042.28;4990170;28;105869;-66
2021/10/15 10:37:18;;;;;;;3.88;2.88;;;;;;;32.77;18.43;100053.97;4989868;28;105935;-68
2021/10/15 10:39:44;;;;;;;3.78;2.90;;;;;;;31.90;19.14;100063.56;4988980;28;106067;-68
2021/10/15 10:42:14;;;;;;;5.10;3.50;;;;;;;30.20;20.67;100046.28;4989491;28;106018;-67
2021/10/15 10:44:48;;;;;;;6.30;3.88;;;;;;;29.91;21.13;100043.84;4990470;28;106035;-66
2021/10/15 10:47:17;;;;;;;5.88;3.05;;;;;;;28.90;22.10;100032.31;4989913;28;106290;-67
2021/10/15 10:52:31;;;;;;;3.95;3.20;;;;;;;26.63;24.84;100034.44;4988987;28;106030;-68
2021/10/15 10:54:56;;;;;;;7.65;3.13;;;;;;;24.78;26.47;100037.38;4988407;28;105986;-71
2021/10/15 10:57:38;;;;;;;8.32;5.75;;;;;;;23.63;28.15;100035.16;4989662;28;106338;-66
2021/10/15 11:00:18;;;;;;;6.47;4.03;;;;;;;23.31;29.42;100021.59;4988777;28;106209;-67
2021/10/15 11:02:46;;;;;;;4.53;2.90;;;;;;;23.24;29.49;100026.41;4987158;28;106341;-67
2021/10/15 11:05:11;;;;;;;4.60;3.45;;;;;;;24.85;28.94;100013.44;4988992;28;105982;-67
2021/10/15 11:07:37;;;;;;;4.35;3.22;;;;;;;24.11;28.18;100010.72;4989374;28;105974;-67
2021/10/15 11:10:05;;;;;;;4.95;3.20;;;;;;;23.21;30.02;100008.72;4989252;28;106799;-69
2021/10/15 11:12:31;;;;;;;4.60;3.33;;;;;;;24.10;30.22;100019.16;4988686;28;105994;-67
2021/10/15 11:15:27;;;;;;;3.85;2.63;;;;;;;27.75;25.38;100019.41;4989794;28;106073;-67
2021/10/15 11:17:52;;;;;;;5.28;3.20;;;;;;;24.74;26.96;100011.75;4988663;28;106138;-70
2021/10/15 11:20:32;;;;;;;5.57;3.60;;;;;;;22.89;30.19;100003.25;4989217;28;109940;-68
2021/10/15 11:23:08;;;;;;;;;;;;;;;21.66;31.86;100005.22;4989535;28;105986;-68
2021/10/15 11:25:39;;;;;;;7.15;4.40;;;;;;;21.09;33.63;100002.41;4989964;28;105907;-67
2021/10/15 11:28:10;;;;;;;3.85;2.58;;;;;;;21.78;33.44;100031.16;4988790;28;106230;-67
2021/10/15 11:30:38;;;;;;;3.60;2.80;;;;;;;21.24;33.54;100001.00;4989101;28;106032;-69
2021/10/15 11:33:07;;;;;;;5.75;3.28;;;;;;;21.10;34.35;99992.38;4989062;28;106371;-70
2021/10/15 11:35:35;;;;;;;4.55;3.10;;;;;;;20.58;34.77;99979.78;4989525;28;107048;-69
2021/10/15 11:38:05;;;;;;;4.10;3.10;;;;;;;19.65;36.80;100001.34;4989120;28;106276;-65
2021/10/15 11:41:06;;;;;;;5.80;3.03;;;;;;;18.53;38.38;99993.66;4989040;28;106099;-71
2021/10/15 11:43:39;;;;;;;4.35;3.05;;;;;;;17.89;39.92;99980.50;4988901;28;106140;-71
2021/10/15 11:46:17;;;;;;;3.88;2.92;;;;;;;17.74;40.76;99980.00;4989934;28;105968;-71
2021/10/15 11:48:45;;;;;;;7.47;2.88;;;;;;;18.79;40.24;99970.06;4988516;28;106382;-67
2021/10/15 11:51:16;;;;;;;3.85;2.92;;;;;;;19.55;38.75;99973.03;4987814;28;106158;-70
2021/10/15 11:53:46;;;;;;;4.22;3.10;;;;;;;22.16;37.25;99985.31;4988078;28;106177;-70
2021/10/15 11:56:25;;;;;;;4.95;3.00;;;;;;;25.84;31.44;99957.78;4989162;28;106269;-69
2021/10/15 11:58:53;;;;;;;6.65;3.80;;;;;;;28.80;26.69;99961.16;4988616;28;106119;-70
2021/10/15 13:39:44;;;;;;;4.22;2.78;;;;;;;15.21;48.38;99903.97;5045194;27;106359;-68
2021/10/15 13:47:31;;;;;;;7.20;2.72;;;;;;;14.91;50.78;99895.50;5001196;27;106118;-68
2021/10/15 13:49:58;;;;;;;5.07;2.80;;;;;;;14.91;50.85;99898.19;5043173;27;106136;-70
2021/10/15 13:52:25;;;;;;;3.97;2.17;;;;;;;14.91;51.22;99887.47;5044511;27;106690;-70
2021/10/15 13:54:51;;;;;;;4.13;2.72;;;;;;;14.90;51.33;99885.81;5043960;27;106445;-70
2021/10/15 13:57:19;;;;;;;4.28;2.65;;;;;;;14.87;51.26;99881.69;5042900;27;106374;-67
2021/10/15 14:02:21;;;;;;;3.80;2.70;;;;;;;14.92;51.51;99872.22;5042501;27;106037;-72
2021/10/15 14:04:46;;;;;;;3.80;2.35;;;;;;;14.87;51.56;99880.84;5043491;27;106123;-66
2021/10/15 14:07:14;;;;;;;3.78;2.65;;;;;;;14.76;51.76;99878.78;5043244;27;107862;-67
2021/10/15 14:09:41;;;;;;;4.70;2.90;;;;;;;14.63;52.30;99872.41;5041327;27;107034;-65
2021/10/15 14:12:09;;;;;;;4.03;2.42;;;;;;;14.54;52.53;99866.38;5039934;27;106088;-67
2021/10/15 14:14:35;;;;;;;5.30;2.70;;;;;;;14.50;52.58;99858.94;5029625;27;106306;-69
2021/10/15 14:17:01;;;;;;;4.38;2.67;;;;;;;14.47;52.65;99865.53;5024521;27;105845;-67
2021/10/15 14:19:26;;;;;;;4.22;2.97;;;;;;;14.41;52.54;99865.50;5024399;28;106195;-70
2021/10/15 14:21:52;;;;;;;4.72;2.72;;;;;;;14.36;53.07;99874.97;5025630;27;105819;-68
2021/10/15 14:24:17;;;;;;;4.35;2.80;;;;;;;14.32;53.19;99873.75;5024898;27;106207;-71
2021/10/15 14:26:43;;;;;;;3.83;2.28;;;;;;;14.28;53.28;99877.84;5024683;27;105892;-69
2021/10/15 14:29:08;;;;;;;6.07;2.40;;;;;;;14.22;53.37;99884.03;5024462;28;106238;-71
2021/10/15 14:31:34;;;;;;;5.88;2.50;;;;;;;14.17;53.67;99876.59;5025340;27;105919;-69
2021/10/15 14:33:59;;;;;;;6.18;2.40;;;;;;;14.15;53.81;99873.28;5024378;27;106238;-70
2021/10/15 14:36:25;;;;;;;6.00;3.28;;;;;;;14.12;54.02;99872.88;5024184;27;106976;-66
2021/10/15 14:38:50;;;;;;;4.18;2.50;;;;;;;14.06;54.10;99869.13;5023645;28;106477;-67
2021/10/15 14:41:16;;;;;;;6.78;2.90;;;;;;;14.05;54.41;99865.66;5025238;27;105853;-67
2021/10/15 14:43:42;;;;;;;7.68;2.60;;;;;;;14.03;54.43;99869.56;5024630;28;106181;-68
2021/10/15 14:46:08;;;;;;;7.55;2.80;;;;;;;14.00;55.09;99875.31;5024044;27;105961;-67
2021/10/15 14:48:33;;;;;;;4.30;2.53;;;;;;;13.96;54.73;99872.19;5023868;27;106052;-64
2021/10/15 14:50:58;;;;;;;5.38;3.28;;;;;;;13.93;55.04;99874.44;5011211;27;106064;-66
2021/10/15 14:53:24;;;;;;;6.47;3.25;;;;;;;13.91;54.92;99876.50;5010949;28;106155;-65
2021/10/15 14:55:49;;;;;;;4.15;2.50;;;;;;;13.88;54.96;99867.84;5010383;28;106616;-70
2021/10/15 14:58:15;;;;;;;5.97;2.72;;;;;;;13.86;55.16;99877.13;5010919;28;105913;-66
2021/10/15 15:00:40;;;;;;;6.47;2.97;;;;;;;13.83;55.22;99870.31;5011615;28;106074;-65
2021/10/15 15:03:06;;;;;;;5.00;2.75;;;;;;;13.81;55.44;99864.31;5010896;28;106252;-65
2021/10/15 15:05:31;;;;;;;3.70;2.40;;;;;;;13.79;55.68;99879.75;5010557;28;106031;-69
2021/10/15 15:07:57;;;;;;;6.88;2.60;;;;;;;13.76;55.51;99869.44;5010926;28;105686;-66
2021/10/15 15:10:22;;;;;;;4.75;2.55;;;;;;;13.74;55.68;99870.66;5011560;28;105913;-68
2021/10/15 15:12:48;;;;;;;4.63;2.60;;;;;;;13.69;55.94;99884.63;5010700;28;106187;-66
2021/10/15 15:15:13;;;;;;;3.03;2.10;;;;;;;13.66;56.41;99877.84;5010295;28;106619;-66
2021/10/15 15:17:39;;;;;;;5.43;2.40;;;;;;;13.65;57.05;99883.38;5010235;28;105953;-63
2021/10/15 15:20:07;;;;;;;4.05;2.15;;;;;;;13.63;56.43;99888.94;5010889;28;105930;-69
2021/10/15 15:22:33;;;;;;;4.00;2.28;;;;;;;13.59;56.81;99873.50;5010072;28;106268;-65
2021/10/15 15:24:58;;;;;;;4.05;2.42;;;;;;;13.56;56.95;99880.06;5010061;28;105902;-66
2021/10/15 15:27:25;;;;;;;4.00;2.38;;;;;;;13.52;57.18;99879.63;5009999;28;106432;-66
2021/10/15 15:29:50;;;;;;;6.00;2.97;;;;;;;13.51;57.39;99877.94;5009714;28;105813;-64
2021/10/15 15:32:15;;;;;;;5.55;3.25;;;;;;;13.49;57.49;99874.66;5010035;28;105907;-65
2021/10/15 15:34:41;;;;;;;5.97;3.30;;;;;;;13.47;57.72;99878.56;5009831;28;105942;-68
2021/10/15 15:37:08;;;;;;;7.10;3.42;;;;;;;13.46;57.66;99879.56;5009169;28;106062;-64
2021/10/15 15:39:33;;;;;;;6.15;3.42;;;;;;;13.45;57.90;99888.63;5010419;28;106050;-68
2021/10/15 15:41:59;;;;;;;7.13;4.00;;;;;;;13.45;57.71;99883.25;5009947;28;106452;-65
2021/10/15 15:44:31;;;;;;;7.00;3.55;;;;;;;13.44;58.15;99887.00;5009718;28;106113;-64
2021/10/15 15:47:00;;;;;;;9.65;4.13;;;;;;;13.42;57.78;99892.50;5009422;28;106305;-64
2021/10/15 15:49:27;;;;;;;8.00;3.90;;;;;;;13.42;57.85;99889.81;5010052;28;106110;-65
2021/10/15 15:51:53;;;;;;;8.57;4.18;;;;;;;13.40;58.21;99894.56;5009593;28;106240;-70
2021/10/15 15:54:19;;;;;;;5.65;3.47;;;;;;;13.40;58.09;99907.94;5009486;28;105922;-70
2021/10/15 15:56:45;;;;;;;8.10;3.72;;;;;;;13.39;58.37;99894.78;5009309;28;105892;-64
2021/10/15 15:59:10;;;;;;;5.90;3.13;;;;;;;13.37;58.28;99903.00;5010017;28;106094;-69
2021/10/15 16:01:36;;;;;;;4.97;3.17;;;;;;;13.37;58.51;99913.69;5008466;28;106223;-67
2021/10/15 16:04:01;;;;;;;6.30;3.80;;;;;;;13.37;58.39;99903.00;5009226;28;106586;-63
2021/10/15 16:06:26;;;;;;;8.07;4.03;;;;;;;13.34;58.80;99909.53;5009437;28;105907;-66
2021/10/15 16:08:52;;;;;;;12.27;4.50;;;;;;;13.34;58.89;99906.00;5010332;28;105812;-68
2021/10/15 16:11:17;;;;;;;5.88;3.60;;;;;;;13.32;58.57;99916.09;5009237;28;106181;-67
2021/10/15 16:13:43;;;;;;;5.88;3.58;;;;;;;13.30;58.84;99915.44;5008819;28;106700;-66
2021/10/15 16:16:10;;;;;;;7.22;3.65;;;;;;;13.30;59.13;99913.63;5008763;28;105892;-65
2021/10/15 16:18:36;;;;;;;7.55;3.30;;;;;;;13.29;59.10;99917.31;5009598;28;106375;-65
2021/10/15 16:21:01;;;;;;;8.30;4.47;;;;;;;13.28;59.37;99920.19;5009244;28;106222;-65
2021/10/15 16:23:27;;;;;;;7.22;4.70;;;;;;;13.25;59.27;99920.56;5008753;28;105945;-67
2021/10/15 16:25:52;;;;;;;7.65;3.95;;;;;;;13.24;59.37;99932.28;5008536;28;106245;-67
2021/10/15 16:28:18;;;;;;;6.88;3.97;;;;;;;13.22;59.32;99935.16;5009968;28;105904;-63
2021/10/15 16:30:43;;;;;;;6.95;4.10;;;;;;;13.21;59.38;99934.31;5008775;28;106052;-64
2021/10/15 16:33:08;;;;;;;6.63;3.33;;;;;;;13.23;59.37;99938.66;5009074;28;106635;-64
2021/10/15 16:35:34;;;;;;;6.00;3.70;;;;;;;13.24;59.68;99940.31;5008949;28;105993;-65
2021/10/15 16:37:59;;;;;;;8.23;4.07;;;;;;;13.24;59.33;99946.47;5008683;28;105982;-65
2021/10/15 16:40:25;;;;;;;7.28;3.75;;;;;;;13.25;59.39;99950.00;5009248;28;106298;-68
2021/10/15 16:42:50;;;;;;;7.47;4.35;;;;;;;13.25;59.79;99950.81;5008874;28;105933;-69
2021/10/15 16:45:16;;;;;;;6.78;3.10;;;;;;;13.26;59.30;99944.44;4990044;28;105972;-70
2021/10/15 16:47:41;;;;;;;6.28;3.85;;;;;;;13.27;59.52;99946.09;4987935;28;106047;-67
2021/10/15 16:50:08;;;;;;;6.05;3.83;;;;;;;13.28;59.74;99941.56;4987633;28;106208;-66
2021/10/15 16:52:33;;;;;;;7.68;4.70;;;;;;;13.27;59.53;99942.59;4987188;28;106323;-69
2021/10/15 16:54:59;;;;;;;6.78;4.60;;;;;;;13.28;59.39;99946.94;4987543;28;106424;-62
2021/10/15 16:57:25;;;;;;;6.80;3.75;;;;;;;13.27;59.78;99946.09;4987722;28;106091;-68
2021/10/15 16:59:52;;;;;;;5.90;4.20;;;;;;;13.26;59.64;99944.44;4987519;28;106954;-67
2021/10/15 17:02:17;;;;;;;5.63;4.00;;;;;;;13.28;59.60;99954.94;4987323;28;106131;-64
2021/10/15 17:04:42;;;;;;;6.70;3.92;;;;;;;13.27;59.70;99962.16;4987174;28;106456;-64
2021/10/15 17:07:08;;;;;;;6.40;3.83;;;;;;;13.25;59.93;99966.88;4987979;28;106019;-65
2021/10/15 17:09:34;;;;;;;5.80;3.70;;;;;;;13.25;60.31;99971.41;4986811;28;106658;-67
2021/10/15 17:12:00;;;;;;;7.20;3.78;;;;;;;13.19;60.19;99973.00;4986764;28;106226;-64
2021/10/15 17:14:25;;;;;;;7.72;4.60;;;;;;;13.15;60.64;99975.22;4986923;28;106092;-67
2021/10/15 17:16:50;;;;;;;7.45;4.75;;;;;;;13.11;60.40;100000.69;4988074;28;106199;-67
2021/10/15 17:19:16;;;;;;;8.73;5.15;;;;;;;13.08;60.79;100006.44;4986946;28;106951;-67
2021/10/15 17:21:41;;;;;;;6.40;4.28;;;;;;;13.03;61.18;100015.00;4987256;28;106737;-69
2021/10/15 17:24:07;;;;;;;7.20;4.60;;;;;;;12.94;61.91;100016.16;4987049;28;106016;-68
2021/10/15 17:26:33;;;;;;;6.90;4.25;;;;;;;12.80;62.64;100011.69;4988289;28;106076;-68
2021/10/15 17:28:58;;;;;;;7.53;4.57;;;;;;;12.65;62.72;100020.56;4987423;28;106167;-68
2021/10/15 17:31:24;;;;;;;8.45;4.72;;;;;;;12.51;63.26;100016.09;4986863;28;106777;-67
2021/10/15 17:33:49;;;;;;;7.95;4.30;;;;;;;12.41;63.41;100024.41;4987020;28;105991;-63
2021/10/15 17:36:17;;;;;;;5.93;4.03;;;;;;;12.32;64.14;100033.53;4988165;28;105968;-67
2021/10/15 17:38:44;;;;;;;6.15;3.97;;;;;;;12.23;64.33;100023.94;4986571;28;106177;-67
2021/10/15 17:41:09;;;;;;;9.05;4.88;;;;;;;12.17;65.19;100030.88;4986815;28;106017;-64
2021/10/15 17:43:34;;;;;;;6.72;4.35;;;;;;;12.10;65.32;100033.44;4985828;28;107912;-66
2021/10/15 17:46:01;;;;;;;7.10;4.47;;;;;;;12.04;65.51;100034.16;4987019;28;106299;-66
2021/10/15 17:48:26;;;;;;;7.93;4.80;;;;;;;11.97;66.05;100036.75;4986203;28;106222;-66
2021/10/15 17:50:51;;;;;;;6.60;4.18;;;;;;;11.90;66.41;100033.13;4985955;28;106702;-68
2021/10/15 17:53:17;;;;;;;6.50;3.70;;;;;;;11.85;66.68;100049.69;4985787;28;105991;-68
2021/10/15 17:55:42;;;;;;;6.57;3.88;;;;;;;11.83;66.98;100056.22;4985916;28;106121;-65
2021/10/15 17:58:08;;;;;;;8.10;3.83;;;;;;;11.79;67.55;100045.06;4986168;28;106328;-65
2021/10/15 18:00:33;;;;;;;5.88;4.10;;;;;;;11.76;68.23;100050.78;4985755;28;106060;-64
2021/10/15 18:02:58;;;;;;;5.22;3.83;;;;;;;11.76;67.89;100052.63;4985993;28;106016;-67
2021/10/15 18:05:29;;;;;;;8.25;4.40;;;;;;;11.74;68.42;100047.47;4986774;28;105976;-68
2021/10/15 18:07:57;;;;;;;5.72;4.15;;;;;;;11.71;67.81;100065.66;4985831;28;106411;-63
2021/10/15 18:10:22;;;;;;;5.35;3.80;;;;;;;11.68;68.76;100066.84;4986209;28;107221;-65
2021/10/15 18:12:47;;;;;;;7.18;4.35;;;;;;;11.65;68.25;100072.56;4985974;28;106083;-65
2021/10/15 18:15:13;;;;;;;5.55;3.83;;;;;;;11.62;69.05;100075.59;4986371;28;105968;-69
2021/10/15 18:17:38;;;;;;;6.22;3.65;;;;;;;11.60;69.52;100072.28;4985554;28;106242;-69
2021/10/15 18:20:05;;;;;;;10.80;4.80;;;;;;;11.56;69.50;100078.97;4985316;28;105979;-64
2021/10/15 18:22:32;;;;;;;5.97;3.40;;;;;;;11.51;69.23;100084.84;4985796;28;106131;-65
2021/10/15 18:24:58;;;;;;;6.47;3.90;;;;;;;11.45;69.60;100104.22;4988205;28;106959;-67
2021/10/15 18:27:24;;;;;;;5.53;2.88;;;;;;;11.36;70.21;100103.47;4989280;28;106234;-66